sensor_id;sensor_type;location;lat;lon;timestamp;P1;durP1;ratioP1;P2;durP2;ratioP2
10114;SDS011;74399;43.260;27.812;2023-12-22T00:01:21;21.80;;;8.53;;
10114;SDS011;74399;43.260;27.812;2023-12-22T00:04:05;14.10;;;7.90;;
10114;SDS011;74399;43.260;27.812;2023-12-22T00:06:49;18.80;;;10.70;;
10114;SDS011;74399;43.260;27.812;2023-12-22T00:12:19;20.98;;;10.30;;
10114;SDS011;74399;43.260;27.812;2023-12-22T00:15:04;20.20;;;12.48;;
10114;SDS011;74399;43.260;27.812;2023-12-22T00:17:49;20.30;;;13.18;;
10114;SDS011;74399;43.260;27.812;2023-12-22T00:20:33;16.20;;;9.25;;
10114;SDS011;74399;43.260;27.812;2023-12-22T00:23:18;29.57;;;13.80;;
10114;SDS011;74399;43.260;27.812;2023-12-22T00:26:03;27.23;;;13.32;;
10114;SDS011;74399;43.260;27.812;2023-12-22T00:28:48;29.63;;;16.13;;
10114;SDS011;74399;43.260;27.812;2023-12-22T00:31:33;29.80;;;16.55;;
10114;SDS011;74399;43.260;27.812;2023-12-22T00:34:17;31.20;;;16.47;;
10114;SDS011;74399;43.260;27.812;2023-12-22T00:37:02;30.55;;;16.08;;
10114;SDS011;74399;43.260;27.812;2023-12-22T00:39:47;32.35;;;15.98;;
10114;SDS011;74399;43.260;27.812;2023-12-22T00:42:32;22.23;;;12.80;;
10114;SDS011;74399;43.260;27.812;2023-12-22T00:45:17;17.70;;;11.35;;
10114;SDS011;74399;43.260;27.812;2023-12-22T00:48:01;19.53;;;11.70;;
10114;SDS011;74399;43.260;27.812;2023-12-22T00:50:45;22.40;;;12.57;;
10114;SDS011;74399;43.260;27.812;2023-12-22T00:53:29;27.55;;;16.90;;
10114;SDS011;74399;43.260;27.812;2023-12-22T00:56:13;24.80;;;12.90;;
10114;SDS011;74399;43.260;27.812;2023-12-22T00:58:59;27.57;;;13.83;;
10114;SDS011;74399;43.260;27.812;2023-12-22T01:01:52;22.23;;;12.55;;
10114;SDS011;74399;43.260;27.812;2023-12-22T01:04:36;23.57;;;14.33;;
10114;SDS011;74399;43.260;27.812;2023-12-22T01:07:21;24.02;;;13.35;;
10114;SDS011;74399;43.260;27.812;2023-12-22T01:10:05;21.20;;;11.93;;
10114;SDS011;74399;43.260;27.812;2023-12-22T01:12:51;24.42;;;14.02;;
10114;SDS011;74399;43.260;27.812;2023-12-22T01:15:36;24.00;;;14.57;;
10114;SDS011;74399;43.260;27.812;2023-12-22T01:18:20;26.67;;;14.20;;
10114;SDS011;74399;43.260;27.812;2023-12-22T01:21:05;44.83;;;23.10;;
10114;SDS011;74399;43.260;27.812;2023-12-22T01:23:49;27.73;;;17.75;;
10114;SDS011;74399;43.260;27.812;2023-12-22T01:26:33;24.98;;;16.48;;
10114;SDS011;74399;43.260;27.812;2023-12-22T01:29:17;28.48;;;14.73;;
10114;SDS011;74399;43.260;27.812;2023-12-22T01:32:03;22.70;;;13.23;;
10114;SDS011;74399;43.260;27.812;2023-12-22T01:34:48;29.23;;;15.65;;
10114;SDS011;74399;43.260;27.812;2023-12-22T01:37:32;29.35;;;18.25;;
10114;SDS011;74399;43.260;27.812;2023-12-22T01:40:16;22.40;;;12.10;;
10114;SDS011;74399;43.260;27.812;2023-12-22T01:43:01;25.50;;;13.37;;
10114;SDS011;74399;43.260;27.812;2023-12-22T01:45:45;22.48;;;14.10;;
10114;SDS011;74399;43.260;27.812;2023-12-22T01:48:31;19.27;;;11.98;;
10114;SDS011;74399;43.260;27.812;2023-12-22T01:51:16;23.63;;;12.77;;
10114;SDS011;74399;43.260;27.812;2023-12-22T01:54:00;15.98;;;10.90;;
10114;SDS011;74399;43.260;27.812;2023-12-22T01:56:44;17.25;;;10.13;;
10114;SDS011;74399;43.260;27.812;2023-12-22T01:59:29;14.48;;;9.65;;
10114;SDS011;74399;43.260;27.812;2023-12-22T02:02:16;14.90;;;9.25;;
10114;SDS011;74399;43.260;27.812;2023-12-22T02:05:02;13.90;;;7.67;;
10114;SDS011;74399;43.260;27.812;2023-12-22T02:07:47;11.90;;;7.90;;
10114;SDS011;74399;43.260;27.812;2023-12-22T02:10:32;9.50;;;6.25;;
10114;SDS011;74399;43.260;27.812;2023-12-22T02:13:16;13.32;;;8.18;;
10114;SDS011;74399;43.260;27.812;2023-12-22T02:16:01;13.27;;;7.60;;
10114;SDS011;74399;43.260;27.812;2023-12-22T02:18:55;12.40;;;7.63;;
10114;SDS011;74399;43.260;27.812;2023-12-22T02:24:52;15.80;;;7.47;;
10114;SDS011;74399;43.260;27.812;2023-12-22T02:27:38;19.75;;;9.15;;
10114;SDS011;74399;43.260;27.812;2023-12-22T02:30:31;15.07;;;6.70;;
10114;SDS011;74399;43.260;27.812;2023-12-22T02:33:17;13.77;;;7.90;;
10114;SDS011;74399;43.260;27.812;2023-12-22T02:36:05;11.43;;;6.43;;
10114;SDS011;74399;43.260;27.812;2023-12-22T02:38:52;10.02;;;6.50;;
10114;SDS011;74399;43.260;27.812;2023-12-22T02:41:39;10.65;;;6.18;;
10114;SDS011;74399;43.260;27.812;2023-12-22T02:44:24;12.23;;;7.93;;
10114;SDS011;74399;43.260;27.812;2023-12-22T02:47:08;10.65;;;7.43;;
10114;SDS011;74399;43.260;27.812;2023-12-22T02:49:53;10.03;;;5.63;;
10114;SDS011;74399;43.260;27.812;2023-12-22T02:52:37;13.80;;;7.65;;
10114;SDS011;74399;43.260;27.812;2023-12-22T02:55:21;12.05;;;7.85;;
10114;SDS011;74399;43.260;27.812;2023-12-22T02:58:07;12.15;;;7.43;;
10114;SDS011;74399;43.260;27.812;2023-12-22T03:00:51;11.35;;;7.93;;
10114;SDS011;74399;43.260;27.812;2023-12-22T03:03:35;12.77;;;7.13;;
10114;SDS011;74399;43.260;27.812;2023-12-22T03:06:19;15.80;;;8.03;;
10114;SDS011;74399;43.260;27.812;2023-12-22T03:09:03;17.92;;;9.30;;
10114;SDS011;74399;43.260;27.812;2023-12-22T03:11:48;17.00;;;9.32;;
10114;SDS011;74399;43.260;27.812;2023-12-22T03:14:35;15.18;;;8.77;;
10114;SDS011;74399;43.260;27.812;2023-12-22T03:17:20;14.35;;;6.78;;
10114;SDS011;74399;43.260;27.812;2023-12-22T03:20:05;15.70;;;8.67;;
10114;SDS011;74399;43.260;27.812;2023-12-22T03:22:49;15.18;;;9.55;;
10114;SDS011;74399;43.260;27.812;2023-12-22T03:25:33;21.73;;;9.23;;
10114;SDS011;74399;43.260;27.812;2023-12-22T03:28:17;21.10;;;9.83;;
10114;SDS011;74399;43.260;27.812;2023-12-22T03:31:03;33.10;;;16.00;;
10114;SDS011;74399;43.260;27.812;2023-12-22T03:33:49;21.90;;;12.88;;
10114;SDS011;74399;43.260;27.812;2023-12-22T03:36:33;20.90;;;12.63;;
10114;SDS011;74399;43.260;27.812;2023-12-22T03:39:17;35.77;;;18.20;;
10114;SDS011;74399;43.260;27.812;2023-12-22T03:42:01;25.27;;;11.48;;
10114;SDS011;74399;43.260;27.812;2023-12-22T03:44:45;21.42;;;11.65;;
10114;SDS011;74399;43.260;27.812;2023-12-22T03:47:31;24.53;;;10.30;;
10114;SDS011;74399;43.260;27.812;2023-12-22T03:50:15;32.75;;;16.13;;
10114;SDS011;74399;43.260;27.812;2023-12-22T03:52:59;28.48;;;15.75;;
10114;SDS011;74399;43.260;27.812;2023-12-22T03:55:43;27.43;;;14.23;;
10114;SDS011;74399;43.260;27.812;2023-12-22T03:58:27;100.87;;;49.20;;
10114;SDS011;74399;43.260;27.812;2023-12-22T04:01:13;27.10;;;14.15;;
10114;SDS011;74399;43.260;27.812;2023-12-22T04:03:59;21.15;;;13.77;;
10114;SDS011;74399;43.260;27.812;2023-12-22T04:06:43;53.28;;;29.67;;
10114;SDS011;74399;43.260;27.812;2023-12-22T04:09:28;74.57;;;41.10;;
10114;SDS011;74399;43.260;27.812;2023-12-22T04:12:12;32.95;;;19.38;;
10114;SDS011;74399;43.260;27.812;2023-12-22T04:14:56;25.23;;;14.40;;
10114;SDS011;74399;43.260;27.812;2023-12-22T04:17:40;34.38;;;19.20;;
10114;SDS011;74399;43.260;27.812;2023-12-22T04:20:25;25.53;;;15.10;;
10114;SDS011;74399;43.260;27.812;2023-12-22T04:23:09;22.80;;;13.82;;
10114;SDS011;74399;43.260;27.812;2023-12-22T04:25:54;26.05;;;15.45;;
10114;SDS011;74399;43.260;27.812;2023-12-22T04:28:38;35.70;;;19.73;;
10114;SDS011;74399;43.260;27.812;2023-12-22T04:31:22;54.92;;;27.45;;
10114;SDS011;74399;43.260;27.812;2023-12-22T04:34:06;32.60;;;17.83;;
10114;SDS011;74399;43.260;27.812;2023-12-22T04:36:52;28.42;;;16.75;;
10114;SDS011;74399;43.260;27.812;2023-12-22T04:39:36;58.75;;;29.63;;
10114;SDS011;74399;43.260;27.812;2023-12-22T04:42:20;38.13;;;20.25;;
10114;SDS011;74399;43.260;27.812;2023-12-22T04:45:04;48.33;;;22.30;;
10114;SDS011;74399;43.260;27.812;2023-12-22T04:47:49;37.20;;;20.65;;
10114;SDS011;74399;43.260;27.812;2023-12-22T04:50:33;40.72;;;20.42;;
10114;SDS011;74399;43.260;27.812;2023-12-22T04:53:19;32.03;;;17.02;;
10114;SDS011;74399;43.260;27.812;2023-12-22T04:56:03;34.97;;;21.27;;
10114;SDS011;74399;43.260;27.812;2023-12-22T04:58:48;34.45;;;20.27;;
10114;SDS011;74399;43.260;27.812;2023-12-22T05:01:32;35.63;;;21.90;;
10114;SDS011;74399;43.260;27.812;2023-12-22T05:04:17;38.30;;;21.08;;
10114;SDS011;74399;43.260;27.812;2023-12-22T05:07:01;33.00;;;21.00;;
10114;SDS011;74399;43.260;27.812;2023-12-22T05:09:50;34.38;;;18.77;;
10114;SDS011;74399;43.260;27.812;2023-12-22T05:12:36;38.92;;;20.08;;
10114;SDS011;74399;43.260;27.812;2023-12-22T05:15:21;30.55;;;18.63;;
10114;SDS011;74399;43.260;27.812;2023-12-22T05:18:05;35.22;;;19.27;;
10114;SDS011;74399;43.260;27.812;2023-12-22T05:20:49;27.15;;;15.75;;
10114;SDS011;74399;43.260;27.812;2023-12-22T05:23:35;28.58;;;17.23;;
10114;SDS011;74399;43.260;27.812;2023-12-22T05:26:20;45.08;;;22.95;;
10114;SDS011;74399;43.260;27.812;2023-12-22T05:29:05;40.35;;;21.02;;
10114;SDS011;74399;43.260;27.812;2023-12-22T05:31:50;48.40;;;25.27;;
10114;SDS011;74399;43.260;27.812;2023-12-22T05:34:34;39.97;;;20.37;;
10114;SDS011;74399;43.260;27.812;2023-12-22T05:37:19;43.53;;;25.80;;
10114;SDS011;74399;43.260;27.812;2023-12-22T05:40:03;31.65;;;19.23;;
10114;SDS011;74399;43.260;27.812;2023-12-22T05:42:50;30.30;;;18.20;;
10114;SDS011;74399;43.260;27.812;2023-12-22T05:45:34;28.00;;;18.02;;
10114;SDS011;74399;43.260;27.812;2023-12-22T05:48:18;32.40;;;18.77;;
10114;SDS011;74399;43.260;27.812;2023-12-22T05:51:04;46.38;;;24.10;;
10114;SDS011;74399;43.260;27.812;2023-12-22T05:53:49;31.50;;;22.00;;
10114;SDS011;74399;43.260;27.812;2023-12-22T05:56:35;33.17;;;21.42;;
10114;SDS011;74399;43.260;27.812;2023-12-22T05:59:21;57.55;;;31.70;;
10114;SDS011;74399;43.260;27.812;2023-12-22T06:02:05;43.95;;;25.10;;
10114;SDS011;74399;43.260;27.812;2023-12-22T06:04:49;40.00;;;23.37;;
10114;SDS011;74399;43.260;27.812;2023-12-22T06:07:33;55.05;;;28.95;;
10114;SDS011;74399;43.260;27.812;2023-12-22T06:10:18;43.67;;;26.50;;
10114;SDS011;74399;43.260;27.812;2023-12-22T06:13:02;47.67;;;26.80;;
10114;SDS011;74399;43.260;27.812;2023-12-22T06:15:49;46.53;;;25.00;;
10114;SDS011;74399;43.260;27.812;2023-12-22T06:18:33;53.97;;;25.52;;
10114;SDS011;74399;43.260;27.812;2023-12-22T06:21:17;41.95;;;26.27;;
10114;SDS011;74399;43.260;27.812;2023-12-22T06:24:01;58.13;;;31.60;;
10114;SDS011;74399;43.260;27.812;2023-12-22T06:26:45;43.40;;;26.75;;
10114;SDS011;74399;43.260;27.812;2023-12-22T06:29:29;41.60;;;23.77;;
10114;SDS011;74399;43.260;27.812;2023-12-22T06:32:15;47.53;;;29.30;;
10114;SDS011;74399;43.260;27.812;2023-12-22T06:35:00;53.15;;;25.00;;
10114;SDS011;74399;43.260;27.812;2023-12-22T06:37:44;51.67;;;31.85;;
10114;SDS011;74399;43.260;27.812;2023-12-22T06:40:29;44.55;;;28.27;;
10114;SDS011;74399;43.260;27.812;2023-12-22T06:43:13;44.58;;;24.88;;
10114;SDS011;74399;43.260;27.812;2023-12-22T06:45:58;41.08;;;25.52;;
10114;SDS011;74399;43.260;27.812;2023-12-22T06:48:43;46.70;;;27.40;;
10114;SDS011;74399;43.260;27.812;2023-12-22T06:51:28;39.83;;;26.33;;
10114;SDS011;74399;43.260;27.812;2023-12-22T06:54:13;45.88;;;24.92;;
10114;SDS011;74399;43.260;27.812;2023-12-22T06:56:59;31.27;;;16.63;;
10114;SDS011;74399;43.260;27.812;2023-12-22T06:59:43;39.90;;;21.27;;
10114;SDS011;74399;43.260;27.812;2023-12-22T07:02:28;40.80;;;19.80;;
10114;SDS011;74399;43.260;27.812;2023-12-22T07:05:34;33.55;;;20.48;;
10114;SDS011;74399;43.260;27.812;2023-12-22T07:08:21;37.30;;;20.63;;
10114;SDS011;74399;43.260;27.812;2023-12-22T07:11:05;42.65;;;23.45;;
10114;SDS011;74399;43.260;27.812;2023-12-22T07:13:50;44.75;;;27.50;;
10114;SDS011;74399;43.260;27.812;2023-12-22T07:16:35;34.88;;;20.17;;
10114;SDS011;74399;43.260;27.812;2023-12-22T07:19:19;39.95;;;17.73;;
10114;SDS011;74399;43.260;27.812;2023-12-22T07:22:06;30.33;;;16.33;;
10114;SDS011;74399;43.260;27.812;2023-12-22T07:24:50;33.65;;;15.90;;
10114;SDS011;74399;43.260;27.812;2023-12-22T07:27:35;28.60;;;15.90;;
10114;SDS011;74399;43.260;27.812;2023-12-22T07:30:19;32.35;;;21.20;;
10114;SDS011;74399;43.260;27.812;2023-12-22T07:33:03;32.92;;;18.45;;
10114;SDS011;74399;43.260;27.812;2023-12-22T07:35:47;31.73;;;17.38;;
10114;SDS011;74399;43.260;27.812;2023-12-22T07:38:33;25.10;;;15.50;;
10114;SDS011;74399;43.260;27.812;2023-12-22T07:41:17;26.58;;;13.68;;
10114;SDS011;74399;43.260;27.812;2023-12-22T07:44:01;29.58;;;17.83;;
10114;SDS011;74399;43.260;27.812;2023-12-22T07:46:55;30.35;;;17.92;;
10114;SDS011;74399;43.260;27.812;2023-12-22T07:49:41;29.80;;;18.27;;
10114;SDS011;74399;43.260;27.812;2023-12-22T07:52:27;27.85;;;16.33;;
10114;SDS011;74399;43.260;27.812;2023-12-22T07:55:13;28.48;;;15.15;;
10114;SDS011;74399;43.260;27.812;2023-12-22T07:57:59;27.15;;;13.35;;
10114;SDS011;74399;43.260;27.812;2023-12-22T08:00:43;27.35;;;11.57;;
10114;SDS011;74399;43.260;27.812;2023-12-22T08:03:28;19.25;;;10.52;;
10114;SDS011;74399;43.260;27.812;2023-12-22T08:06:12;19.80;;;11.43;;
10114;SDS011;74399;43.260;27.812;2023-12-22T08:08:57;23.23;;;11.50;;
10114;SDS011;74399;43.260;27.812;2023-12-22T08:11:42;18.55;;;10.15;;
10114;SDS011;74399;43.260;27.812;2023-12-22T08:14:28;20.85;;;10.52;;
10114;SDS011;74399;43.260;27.812;2023-12-22T08:17:13;24.13;;;10.48;;
10114;SDS011;74399;43.260;27.812;2023-12-22T08:19:57;14.50;;;9.93;;
10114;SDS011;74399;43.260;27.812;2023-12-22T08:22:52;19.05;;;10.30;;
10114;SDS011;74399;43.260;27.812;2023-12-22T08:25:37;20.20;;;10.65;;
10114;SDS011;74399;43.260;27.812;2023-12-22T08:28:25;18.95;;;11.57;;
10114;SDS011;74399;43.260;27.812;2023-12-22T08:31:09;19.67;;;10.48;;
10114;SDS011;74399;43.260;27.812;2023-12-22T08:33:54;20.65;;;11.55;;
10114;SDS011;74399;43.260;27.812;2023-12-22T08:36:38;61.90;;;33.08;;
10114;SDS011;74399;43.260;27.812;2023-12-22T08:39:23;50.47;;;25.87;;
10114;SDS011;74399;43.260;27.812;2023-12-22T08:42:08;49.47;;;29.45;;
10114;SDS011;74399;43.260;27.812;2023-12-22T08:44:54;31.88;;;20.42;;
10114;SDS011;74399;43.260;27.812;2023-12-22T08:47:38;37.38;;;18.83;;
10114;SDS011;74399;43.260;27.812;2023-12-22T08:50:23;26.02;;;15.68;;
10114;SDS011;74399;43.260;27.812;2023-12-22T08:53:07;28.83;;;20.85;;
10114;SDS011;74399;43.260;27.812;2023-12-22T08:55:51;22.60;;;15.20;;
10114;SDS011;74399;43.260;27.812;2023-12-22T08:58:35;45.57;;;20.47;;
10114;SDS011;74399;43.260;27.812;2023-12-22T09:01:21;26.55;;;16.73;;
10114;SDS011;74399;43.260;27.812;2023-12-22T09:04:06;29.02;;;15.05;;
10114;SDS011;74399;43.260;27.812;2023-12-22T09:06:52;27.65;;;15.80;;
10114;SDS011;74399;43.260;27.812;2023-12-22T09:09:36;26.58;;;17.52;;
10114;SDS011;74399;43.260;27.812;2023-12-22T09:12:21;58.73;;;32.03;;
10114;SDS011;74399;43.260;27.812;2023-12-22T09:15:05;48.83;;;22.95;;
10114;SDS011;74399;43.260;27.812;2023-12-22T09:17:51;51.60;;;21.30;;
10114;SDS011;74399;43.260;27.812;2023-12-22T09:20:36;31.75;;;18.40;;
10114;SDS011;74399;43.260;27.812;2023-12-22T09:23:20;32.78;;;19.38;;
10114;SDS011;74399;43.260;27.812;2023-12-22T09:26:04;31.65;;;17.58;;
10114;SDS011;74399;43.260;27.812;2023-12-22T09:28:48;52.63;;;24.63;;
10114;SDS011;74399;43.260;27.812;2023-12-22T09:31:32;57.47;;;32.10;;
10114;SDS011;74399;43.260;27.812;2023-12-22T09:34:18;57.80;;;33.97;;
10114;SDS011;74399;43.260;27.812;2023-12-22T09:37:02;43.25;;;26.75;;
10114;SDS011;74399;43.260;27.812;2023-12-22T09:39:46;35.05;;;15.98;;
10114;SDS011;74399;43.260;27.812;2023-12-22T09:42:34;47.25;;;29.13;;
10114;SDS011;74399;43.260;27.812;2023-12-22T09:45:18;26.08;;;17.30;;
10114;SDS011;74399;43.260;27.812;2023-12-22T09:48:04;26.23;;;16.80;;
10114;SDS011;74399;43.260;27.812;2023-12-22T09:50:51;29.88;;;19.67;;
10114;SDS011;74399;43.260;27.812;2023-12-22T09:53:36;28.45;;;16.90;;
10114;SDS011;74399;43.260;27.812;2023-12-22T09:56:24;33.78;;;16.95;;
10114;SDS011;74399;43.260;27.812;2023-12-22T09:59:09;31.83;;;20.38;;
10114;SDS011;74399;43.260;27.812;2023-12-22T10:01:56;49.33;;;25.10;;
10114;SDS011;74399;43.260;27.812;2023-12-22T10:04:43;62.28;;;30.50;;
10114;SDS011;74399;43.260;27.812;2023-12-22T10:07:29;78.90;;;38.67;;
10114;SDS011;74399;43.260;27.812;2023-12-22T10:10:15;59.67;;;35.47;;
10114;SDS011;74399;43.260;27.812;2023-12-22T10:13:01;50.30;;;29.92;;
10114;SDS011;74399;43.260;27.812;2023-12-22T10:15:49;65.30;;;28.17;;
10114;SDS011;74399;43.260;27.812;2023-12-22T10:18:34;175.00;;;76.22;;
10114;SDS011;74399;43.260;27.812;2023-12-22T10:21:18;54.97;;;28.23;;
10114;SDS011;74399;43.260;27.812;2023-12-22T10:24:04;33.40;;;19.80;;
10114;SDS011;74399;43.260;27.812;2023-12-22T10:26:48;130.05;;;78.18;;
10114;SDS011;74399;43.260;27.812;2023-12-22T10:29:35;33.13;;;19.00;;
10114;SDS011;74399;43.260;27.812;2023-12-22T10:32:20;44.10;;;23.15;;
10114;SDS011;74399;43.260;27.812;2023-12-22T10:35:04;34.03;;;19.88;;
10114;SDS011;74399;43.260;27.812;2023-12-22T10:37:49;24.50;;;14.63;;
10114;SDS011;74399;43.260;27.812;2023-12-22T10:40:38;27.75;;;13.80;;
10114;SDS011;74399;43.260;27.812;2023-12-22T10:43:22;33.80;;;17.13;;
10114;SDS011;74399;43.260;27.812;2023-12-22T10:46:06;25.30;;;14.88;;
10114;SDS011;74399;43.260;27.812;2023-12-22T10:48:53;31.55;;;16.83;;
10114;SDS011;74399;43.260;27.812;2023-12-22T10:51:37;28.33;;;14.18;;
10114;SDS011;74399;43.260;27.812;2023-12-22T10:54:22;26.20;;;15.70;;
10114;SDS011;74399;43.260;27.812;2023-12-22T10:57:07;29.02;;;14.55;;
10114;SDS011;74399;43.260;27.812;2023-12-22T10:59:53;25.08;;;16.17;;
10114;SDS011;74399;43.260;27.812;2023-12-22T11:02:40;36.47;;;17.58;;
10114;SDS011;74399;43.260;27.812;2023-12-22T11:05:26;29.30;;;14.77;;
10114;SDS011;74399;43.260;27.812;2023-12-22T11:08:12;25.13;;;12.35;;
10114;SDS011;74399;43.260;27.812;2023-12-22T11:10:58;20.05;;;12.82;;
10114;SDS011;74399;43.260;27.812;2023-12-22T11:13:55;129.65;;;58.35;;
10114;SDS011;74399;43.260;27.812;2023-12-22T11:16:40;26.40;;;13.98;;
10114;SDS011;74399;43.260;27.812;2023-12-22T11:19:30;62.88;;;23.30;;
10114;SDS011;74399;43.260;27.812;2023-12-22T11:22:17;27.08;;;15.15;;
10114;SDS011;74399;43.260;27.812;2023-12-22T11:25:02;22.92;;;12.63;;
10114;SDS011;74399;43.260;27.812;2023-12-22T11:27:48;18.25;;;11.02;;
10114;SDS011;74399;43.260;27.812;2023-12-22T11:30:37;22.85;;;12.63;;
10114;SDS011;74399;43.260;27.812;2023-12-22T11:33:22;26.13;;;11.05;;
10114;SDS011;74399;43.260;27.812;2023-12-22T11:36:11;28.38;;;11.60;;
10114;SDS011;74399;43.260;27.812;2023-12-22T11:38:56;20.05;;;11.30;;
10114;SDS011;74399;43.260;27.812;2023-12-22T11:41:40;18.38;;;10.95;;
10114;SDS011;74399;43.260;27.812;2023-12-22T11:44:25;22.10;;;11.50;;
10114;SDS011;74399;43.260;27.812;2023-12-22T11:47:11;22.08;;;11.00;;
10114;SDS011;74399;43.260;27.812;2023-12-22T11:49:58;25.60;;;11.23;;
10114;SDS011;74399;43.260;27.812;2023-12-22T11:52:44;27.42;;;10.50;;
10114;SDS011;74399;43.260;27.812;2023-12-22T12:01:34;17.15;;;10.98;;
10114;SDS011;74399;43.260;27.812;2023-12-22T12:04:24;27.48;;;12.07;;
10114;SDS011;74399;43.260;27.812;2023-12-22T12:10:50;24.55;;;11.88;;
10114;SDS011;74399;43.260;27.812;2023-12-22T12:13:39;34.88;;;18.05;;
10114;SDS011;74399;43.260;27.812;2023-12-22T12:16:27;40.03;;;20.38;;
10114;SDS011;74399;43.260;27.812;2023-12-22T12:21:57;34.70;;;15.60;;
10114;SDS011;74399;43.260;27.812;2023-12-22T12:24:42;27.00;;;14.10;;
10114;SDS011;74399;43.260;27.812;2023-12-22T12:27:26;39.63;;;23.83;;
10114;SDS011;74399;43.260;27.812;2023-12-22T12:30:11;26.83;;;14.60;;
10114;SDS011;74399;43.260;27.812;2023-12-22T12:32:58;28.70;;;17.33;;
10114;SDS011;74399;43.260;27.812;2023-12-22T12:35:45;36.53;;;23.45;;
10114;SDS011;74399;43.260;27.812;2023-12-22T12:38:42;53.60;;;30.05;;
10114;SDS011;74399;43.260;27.812;2023-12-22T12:41:31;50.72;;;30.83;;
10114;SDS011;74399;43.260;27.812;2023-12-22T12:44:19;52.55;;;33.15;;
10114;SDS011;74399;43.260;27.812;2023-12-22T12:47:11;49.80;;;34.13;;
10114;SDS011;74399;43.260;27.812;2023-12-22T12:49:56;59.38;;;34.33;;
10114;SDS011;74399;43.260;27.812;2023-12-22T12:52:41;48.92;;;30.42;;
10114;SDS011;74399;43.260;27.812;2023-12-22T12:55:27;53.28;;;27.38;;
10114;SDS011;74399;43.260;27.812;2023-12-22T12:58:12;36.50;;;20.58;;
10114;SDS011;74399;43.260;27.812;2023-12-22T13:01:07;24.13;;;14.32;;
10114;SDS011;74399;43.260;27.812;2023-12-22T13:03:59;23.08;;;14.15;;
10114;SDS011;74399;43.260;27.812;2023-12-22T13:06:46;26.70;;;12.82;;
10114;SDS011;74399;43.260;27.812;2023-12-22T13:09:31;18.60;;;11.98;;
10114;SDS011;74399;43.260;27.812;2023-12-22T13:12:18;28.45;;;12.55;;
10114;SDS011;74399;43.260;27.812;2023-12-22T13:15:02;25.85;;;14.45;;
10114;SDS011;74399;43.260;27.812;2023-12-22T13:17:47;27.27;;;15.63;;
10114;SDS011;74399;43.260;27.812;2023-12-22T13:20:32;30.23;;;19.83;;
10114;SDS011;74399;43.260;27.812;2023-12-22T13:23:17;48.08;;;29.30;;
10114;SDS011;74399;43.260;27.812;2023-12-22T13:26:01;46.47;;;27.88;;
10114;SDS011;74399;43.260;27.812;2023-12-22T13:28:47;28.10;;;15.87;;
10114;SDS011;74399;43.260;27.812;2023-12-22T13:31:32;13.20;;;7.80;;
10114;SDS011;74399;43.260;27.812;2023-12-22T13:34:17;10.43;;;5.40;;
10114;SDS011;74399;43.260;27.812;2023-12-22T13:37:02;5.57;;;3.50;;
10114;SDS011;74399;43.260;27.812;2023-12-22T13:39:47;12.30;;;3.15;;
10114;SDS011;74399;43.260;27.812;2023-12-22T13:42:33;13.85;;;3.33;;
10114;SDS011;74399;43.260;27.812;2023-12-22T13:45:18;5.32;;;2.70;;
10114;SDS011;74399;43.260;27.812;2023-12-22T13:48:03;5.97;;;2.38;;
10114;SDS011;74399;43.260;27.812;2023-12-22T13:50:54;2.80;;;1.92;;
10114;SDS011;74399;43.260;27.812;2023-12-22T13:53:46;3.35;;;2.10;;
10114;SDS011;74399;43.260;27.812;2023-12-22T13:56:32;3.60;;;2.05;;
10114;SDS011;74399;43.260;27.812;2023-12-22T13:59:29;55.75;;;4.38;;
10114;SDS011;74399;43.260;27.812;2023-12-22T14:02:16;3.88;;;2.33;;
10114;SDS011;74399;43.260;27.812;2023-12-22T14:05:01;6.15;;;1.92;;
10114;SDS011;74399;43.260;27.812;2023-12-22T14:07:45;13.63;;;2.50;;
10114;SDS011;74399;43.260;27.812;2023-12-22T14:10:30;14.93;;;2.65;;
10114;SDS011;74399;43.260;27.812;2023-12-22T14:13:14;8.68;;;2.35;;
10114;SDS011;74399;43.260;27.812;2023-12-22T14:15:59;6.60;;;2.40;;
10114;SDS011;74399;43.260;27.812;2023-12-22T14:18:44;3.85;;;1.92;;
10114;SDS011;74399;43.260;27.812;2023-12-22T14:21:29;3.33;;;1.80;;
10114;SDS011;74399;43.260;27.812;2023-12-22T14:24:13;2.85;;;2.05;;
10114;SDS011;74399;43.260;27.812;2023-12-22T14:26:57;6.03;;;2.58;;
10114;SDS011;74399;43.260;27.812;2023-12-22T14:29:41;4.37;;;2.43;;
10114;SDS011;74399;43.260;27.812;2023-12-22T14:32:25;9.63;;;3.70;;
10114;SDS011;74399;43.260;27.812;2023-12-22T14:35:10;6.75;;;3.40;;
10114;SDS011;74399;43.260;27.812;2023-12-22T14:37:55;4.97;;;2.85;;
10114;SDS011;74399;43.260;27.812;2023-12-22T14:40:39;4.00;;;2.03;;
10114;SDS011;74399;43.260;27.812;2023-12-22T14:43:23;10.82;;;2.78;;
10114;SDS011;74399;43.260;27.812;2023-12-22T14:46:07;3.63;;;2.03;;
10114;SDS011;74399;43.260;27.812;2023-12-22T14:48:51;4.15;;;1.83;;
10114;SDS011;74399;43.260;27.812;2023-12-22T14:51:38;5.93;;;2.50;;
10114;SDS011;74399;43.260;27.812;2023-12-22T14:54:22;4.47;;;1.48;;
10114;SDS011;74399;43.260;27.812;2023-12-22T14:57:06;4.15;;;1.70;;
10114;SDS011;74399;43.260;27.812;2023-12-22T14:59:50;3.22;;;1.60;;
10114;SDS011;74399;43.260;27.812;2023-12-22T15:02:35;3.50;;;2.17;;
10114;SDS011;74399;43.260;27.812;2023-12-22T15:05:19;2.85;;;1.67;;
10114;SDS011;74399;43.260;27.812;2023-12-22T15:08:05;6.63;;;1.42;;
10114;SDS011;74399;43.260;27.812;2023-12-22T15:10:50;4.38;;;1.60;;
10114;SDS011;74399;43.260;27.812;2023-12-22T15:13:34;5.18;;;1.52;;
10114;SDS011;74399;43.260;27.812;2023-12-22T15:16:18;3.55;;;1.52;;
10114;SDS011;74399;43.260;27.812;2023-12-22T15:19:04;3.28;;;1.50;;
10114;SDS011;74399;43.260;27.812;2023-12-22T15:21:48;5.32;;;1.40;;
10114;SDS011;74399;43.260;27.812;2023-12-22T15:24:34;8.18;;;1.15;;
10114;SDS011;74399;43.260;27.812;2023-12-22T15:27:18;2.00;;;1.17;;
10114;SDS011;74399;43.260;27.812;2023-12-22T15:30:03;3.38;;;2.30;;
10114;SDS011;74399;43.260;27.812;2023-12-22T15:32:47;2.58;;;1.48;;
10114;SDS011;74399;43.260;27.812;2023-12-22T15:35:33;2.30;;;1.55;;
10114;SDS011;74399;43.260;27.812;2023-12-22T15:38:17;6.70;;;3.45;;
10114;SDS011;74399;43.260;27.812;2023-12-22T15:41:03;6.82;;;1.80;;
10114;SDS011;74399;43.260;27.812;2023-12-22T15:43:47;7.97;;;2.20;;
10114;SDS011;74399;43.260;27.812;2023-12-22T15:46:31;9.18;;;2.05;;
10114;SDS011;74399;43.260;27.812;2023-12-22T15:49:15;7.13;;;1.65;;
10114;SDS011;74399;43.260;27.812;2023-12-22T15:52:00;2.60;;;1.60;;
10114;SDS011;74399;43.260;27.812;2023-12-22T15:54:44;3.50;;;1.30;;
10114;SDS011;74399;43.260;27.812;2023-12-22T15:57:29;4.05;;;2.03;;
10114;SDS011;74399;43.260;27.812;2023-12-22T16:00:14;6.43;;;2.28;;
10114;SDS011;74399;43.260;27.812;2023-12-22T16:02:58;11.23;;;1.35;;
10114;SDS011;74399;43.260;27.812;2023-12-22T16:05:43;2.83;;;2.05;;
10114;SDS011;74399;43.260;27.812;2023-12-22T16:08:27;2.97;;;1.92;;
10114;SDS011;74399;43.260;27.812;2023-12-22T16:11:12;3.97;;;2.03;;
10114;SDS011;74399;43.260;27.812;2023-12-22T16:13:58;2.90;;;1.48;;
10114;SDS011;74399;43.260;27.812;2023-12-22T16:16:42;2.83;;;1.30;;